Terminal Aerodrome Forecast
Issued by NWS

Home | Current Version | Previous Version | Text Only | Print | Product List | Glossary On
Versions: 1 2 3 4 5 6 7 8 9 10 11 12 13 14 15 16 17 18 19 20 21
016
FTUS43 KDVN 232345
TAFBRL
TAF
KBRL 232345Z 2400/2424 09009KT P6SM FEW013 BKN020 OVC100
      TEMPO 2400/2404 2SM -RA BR OVC008
     FM240400 05016G24KT 2SM -RA BR OVC008
     FM241500 01011KT 4SM BR VCSH OVC009
     FM242000 34012KT 5SM BR OVC012=

USA.gov is the U.S. government's official web portal to all federal, state and local government web resources and services.